Time,TemperatureF,DewpointF,PressureIn,WindDirection,WindDirectionDegrees,WindSpeedMPH,WindSpeedGustMPH,Humidity,HourlyPrecipIn,Conditions,Clouds,dailyrainin,SoftwareType,DateUTC
2013-02-24 00:06:00,35.4,33.0,29.77,NNW,336,3.0,6.0,91,0.00,,,0.00,weatherlink.com 1.10,2013-02-24 05:06:00,
2013-02-24 00:21:00,34.6,33.0,29.77,NW,325,3.0,7.0,93,0.00,,,0.00,weatherlink.com 1.10,2013-02-24 05:21:00,
2013-02-24 00:36:00,34.6,33.0,29.76,WNW,282,7.0,8.0,95,0.00,,,0.00,weatherlink.com 1.10,2013-02-24 05:36:00,
2013-02-24 00:51:00,34.7,34.0,29.76,West,277,5.0,10.0,96,0.00,,,0.00,weatherlink.com 1.10,2013-02-24 05:51:00,
2013-02-24 01:06:00,34.8,34.0,29.77,West,278,5.0,11.0,96,0.00,,,0.00,weatherlink.com 1.10,2013-02-24 06:06:00,
2013-02-24 01:21:00,34.6,34.0,29.76,WNW,286,4.0,11.0,96,0.00,,,0.00,weatherlink.com 1.10,2013-02-24 06:21:00,
2013-02-24 01:36:00,34.5,34.0,29.76,WNW,293,3.0,12.0,97,0.00,,,0.00,weatherlink.com 1.10,2013-02-24 06:36:00,
2013-02-24 01:51:00,34.3,34.0,29.76,West,259,4.0,9.0,97,0.00,,,0.00,weatherlink.com 1.10,2013-02-24 06:51:00,
2013-02-24 02:06:00,34.3,33.0,29.76,East,87,8.0,15.0,96,0.00,,,0.00,weatherlink.com 1.10,2013-02-24 07:06:00,
2013-02-24 02:21:00,34.3,34.0,29.76,West,262,4.0,18.0,97,0.00,,,0.00,weatherlink.com 1.10,2013-02-24 07:21:00,
2013-02-24 02:36:00,34.2,33.0,29.76,SW,229,4.0,10.0,96,0.00,,,0.00,weatherlink.com 1.10,2013-02-24 07:36:00,
2013-02-24 03:06:00,33.4,32.0,29.75,WSW,250,7.0,12.0,96,0.00,,,0.00,weatherlink.com 1.10,2013-02-24 08:06:00,
2013-02-24 03:22:00,33.1,32.0,29.75,West,279,5.0,11.0,97,0.00,,,0.00,weatherlink.com 1.10,2013-02-24 08:22:00,
2013-02-24 03:37:00,32.3,31.0,29.74,WSW,257,3.0,11.0,96,0.00,,,0.00,weatherlink.com 1.10,2013-02-24 08:37:00,
2013-02-24 03:52:00,31.1,30.0,29.75,NW,323,2.0,16.0,96,0.00,,,0.00,weatherlink.com 1.10,2013-02-24 08:52:00,
2013-02-24 04:07:00,30.5,30.0,29.75,NW,319,6.0,15.0,96,0.00,,,0.00,weatherlink.com 1.10,2013-02-24 09:07:00,
2013-02-24 04:22:00,30.1,29.0,29.75,North,355,5.0,13.0,96,0.00,,,0.00,weatherlink.com 1.10,2013-02-24 09:22:00,
2013-02-24 04:37:00,29.9,29.0,29.76,West,275,11.0,14.0,96,0.00,,,0.00,weatherlink.com 1.10,2013-02-24 09:37:00,
2013-02-24 04:52:00,29.6,29.0,29.76,WNW,289,7.0,14.0,96,0.00,,,0.00,weatherlink.com 1.10,2013-02-24 09:52:00,
2013-02-24 05:07:00,29.3,28.0,29.77,West,274,11.0,13.0,96,0.00,,,0.00,weatherlink.com 1.10,2013-02-24 10:07:00,
2013-02-24 05:22:00,28.9,28.0,29.77,NNW,332,6.0,20.0,96,0.00,,,0.00,weatherlink.com 1.10,2013-02-24 10:22:00,
2013-02-24 05:37:00,28.5,27.0,29.77,West,274,5.0,18.0,95,0.00,,,0.00,weatherlink.com 1.10,2013-02-24 10:37:00,
2013-02-24 05:52:00,28.2,27.0,29.77,ENE,65,2.0,14.0,95,0.00,,,0.00,weatherlink.com 1.10,2013-02-24 10:52:00,
2013-02-24 06:07:00,27.9,27.0,29.78,NNE,17,5.0,10.0,95,0.00,,,0.00,weatherlink.com 1.10,2013-02-24 11:07:00,
2013-02-24 06:22:00,27.6,26.0,29.78,NW,324,7.0,10.0,95,0.00,,,0.00,weatherlink.com 1.10,2013-02-24 11:22:00,
2013-02-24 06:37:00,27.3,26.0,29.78,WSW,244,4.0,11.0,95,0.00,,,0.00,weatherlink.com 1.10,2013-02-24 11:37:00,
2013-02-24 06:52:00,27.0,26.0,29.80,WNW,300,4.0,9.0,95,0.00,,,0.00,weatherlink.com 1.10,2013-02-24 11:52:00,
2013-02-24 07:07:00,26.6,25.0,29.81,West,265,5.0,9.0,95,0.00,,,0.00,weatherlink.com 1.10,2013-02-24 12:07:00,
2013-02-24 07:22:00,26.0,25.0,29.82,North,360,2.0,9.0,95,0.00,,,0.00,weatherlink.com 1.10,2013-02-24 12:22:00,
2013-02-24 07:37:00,25.7,25.0,29.81,NW,319,7.0,10.0,95,0.00,,,0.00,weatherlink.com 1.10,2013-02-24 12:37:00,
2013-02-24 07:52:00,25.6,24.0,29.82,NW,319,4.0,10.0,95,0.00,,,0.00,weatherlink.com 1.10,2013-02-24 12:52:00,
2013-02-24 08:07:00,25.5,24.0,29.82,WNW,300,8.0,11.0,95,0.00,,,0.00,weatherlink.com 1.10,2013-02-24 13:07:00,
2013-02-24 08:22:00,25.3,24.0,29.83,NW,315,4.0,15.0,95,0.00,,,0.00,weatherlink.com 1.10,2013-02-24 13:22:00,
2013-02-24 08:37:00,25.4,24.0,29.83,NW,318,4.0,11.0,95,0.00,,,0.00,weatherlink.com 1.10,2013-02-24 13:37:00,
2013-02-24 08:52:00,25.8,25.0,29.85,NE,53,2.0,14.0,95,0.00,,,0.00,weatherlink.com 1.10,2013-02-24 13:52:00,
2013-02-24 09:07:00,27.0,25.0,29.85,ESE,119,4.0,12.0,91,0.00,,,0.00,weatherlink.com 1.10,2013-02-24 14:07:00,
2013-02-24 09:22:00,27.5,25.0,29.87,NNW,333,2.0,9.0,90,0.00,,,0.00,weatherlink.com 1.10,2013-02-24 14:22:00,
2013-02-24 09:38:00,28.0,24.0,29.86,WNW,296,5.0,14.0,86,0.00,,,0.00,weatherlink.com 1.10,2013-02-24 14:38:00,
2013-02-24 09:53:00,28.1,23.0,29.86,West,271,6.0,15.0,81,0.00,,,0.00,weatherlink.com 1.10,2013-02-24 14:53:00,
2013-02-24 10:08:00,28.7,24.0,29.87,West,270,6.0,11.0,81,0.00,,,0.00,weatherlink.com 1.10,2013-02-24 15:08:00,
2013-02-24 10:23:00,28.9,23.0,29.87,NW,312,11.0,15.0,80,0.00,,,0.00,weatherlink.com 1.10,2013-02-24 15:23:00,
2013-02-24 10:38:00,29.9,23.0,29.88,WNW,301,3.0,15.0,75,0.00,,,0.00,weatherlink.com 1.10,2013-02-24 15:38:00,
2013-02-24 10:53:00,30.6,23.0,29.89,WSW,251,4.0,11.0,74,0.00,,,0.00,weatherlink.com 1.10,2013-02-24 15:53:00,
2013-02-24 11:08:00,31.5,23.0,29.90,WSW,248,4.0,11.0,70,0.00,,,0.00,weatherlink.com 1.10,2013-02-24 16:08:00,
2013-02-24 11:23:00,32.0,23.0,29.90,WNW,294,7.0,9.0,69,0.00,,,0.00,weatherlink.com 1.10,2013-02-24 16:23:00,
2013-02-24 11:38:00,32.8,23.0,29.91,NNE,17,2.0,14.0,66,0.00,,,0.00,weatherlink.com 1.10,2013-02-24 16:38:00,
2013-02-24 11:53:00,33.4,22.0,29.91,WNW,292,11.0,13.0,63,0.00,,,0.00,weatherlink.com 1.10,2013-02-24 16:53:00,
2013-02-24 12:08:00,33.9,22.0,29.91,WNW,300,6.0,9.0,62,0.00,,,0.00,weatherlink.com 1.10,2013-02-24 17:08:00,
2013-02-24 12:23:00,35.0,22.0,29.91,NNW,340,2.0,13.0,60,0.00,,,0.00,weatherlink.com 1.10,2013-02-24 17:23:00,
2013-02-24 12:38:00,35.5,22.0,29.91,West,259,4.0,11.0,59,0.00,,,0.00,weatherlink.com 1.10,2013-02-24 17:38:00,
2013-02-24 12:53:00,36.2,23.0,29.92,WNW,282,5.0,10.0,59,0.00,,,0.00,weatherlink.com 1.10,2013-02-24 17:53:00,
2013-02-24 13:08:00,37.0,23.0,29.91,WNW,303,6.0,9.0,57,0.00,,,0.00,weatherlink.com 1.10,2013-02-24 18:08:00,
2013-02-24 13:23:00,36.7,22.0,29.92,NW,304,6.0,14.0,56,0.00,,,0.00,weatherlink.com 1.10,2013-02-24 18:23:00,
2013-02-24 13:38:00,36.8,22.0,29.91,NNW,330,7.0,18.0,56,0.00,,,0.00,weatherlink.com 1.10,2013-02-24 18:38:00,
2013-02-24 13:53:00,36.9,23.0,29.91,West,259,6.0,14.0,58,0.00,,,0.00,weatherlink.com 1.10,2013-02-24 18:53:00,
2013-02-24 14:08:00,37.0,22.0,29.92,NW,308,5.0,12.0,56,0.00,,,0.00,weatherlink.com 1.10,2013-02-24 19:08:00,
2013-02-24 14:38:00,36.4,20.0,29.92,WNW,295,4.0,18.0,51,0.00,,,0.00,weatherlink.com 1.10,2013-02-24 19:38:00,
2013-02-24 14:53:00,36.4,19.0,29.91,WNW,296,6.0,17.0,50,0.00,,,0.00,weatherlink.com 1.10,2013-02-24 19:53:00,
2013-02-24 15:08:00,36.7,20.0,29.91,NW,304,5.0,15.0,51,0.00,,,0.00,weatherlink.com 1.10,2013-02-24 20:08:00,
2013-02-24 15:23:00,36.6,20.0,29.92,NW,322,2.0,15.0,51,0.00,,,0.00,weatherlink.com 1.10,2013-02-24 20:23:00,
2013-02-24 15:38:00,36.8,20.0,29.92,NNW,340,5.0,16.0,52,0.00,,,0.00,weatherlink.com 1.10,2013-02-24 20:38:00,
2013-02-24 15:53:00,36.9,20.0,29.91,West,277,11.0,25.0,51,0.00,,,0.00,weatherlink.com 1.10,2013-02-24 20:53:00,
2013-02-24 16:08:00,36.7,20.0,29.92,WNW,282,5.0,15.0,51,0.00,,,0.00,weatherlink.com 1.10,2013-02-24 21:08:00,
2013-02-24 16:23:00,36.8,20.0,29.93,WNW,294,4.0,10.0,51,0.00,,,0.00,weatherlink.com 1.10,2013-02-24 21:23:00,
2013-02-24 16:38:00,36.7,20.0,29.93,WNW,294,3.0,10.0,52,0.00,,,0.00,weatherlink.com 1.10,2013-02-24 21:38:00,
2013-02-24 16:53:00,36.1,21.0,29.93,WSW,255,3.0,10.0,55,0.00,,,0.00,weatherlink.com 1.10,2013-02-24 21:53:00,
2013-02-24 17:08:00,35.3,21.0,29.94,NW,308,7.0,9.0,57,0.00,,,0.00,weatherlink.com 1.10,2013-02-24 22:08:00,
2013-02-24 17:23:00,34.1,22.0,29.94,West,262,3.0,13.0,61,0.00,,,0.00,weatherlink.com 1.10,2013-02-24 22:23:00,
2013-02-24 17:38:00,33.3,23.0,29.95,WNW,287,4.0,15.0,66,0.00,,,0.00,weatherlink.com 1.10,2013-02-24 22:38:00,
2013-02-24 17:53:00,32.8,23.0,29.95,WSW,251,5.0,14.0,67,0.00,,,0.00,weatherlink.com 1.10,2013-02-24 22:53:00,
2013-02-24 18:08:00,32.2,23.0,29.96,NW,326,5.0,10.0,69,0.00,,,0.00,weatherlink.com 1.10,2013-02-24 23:08:00,
2013-02-24 18:23:00,31.8,22.0,29.97,NW,325,5.0,11.0,68,0.00,,,0.00,weatherlink.com 1.10,2013-02-24 23:23:00,
2013-02-24 18:38:00,31.4,23.0,29.97,West,279,7.0,11.0,70,0.00,,,0.00,weatherlink.com 1.10,2013-02-24 23:38:00,
2013-02-24 18:53:00,31.1,23.0,29.98,NW,313,5.0,9.0,71,0.00,,,0.00,weatherlink.com 1.10,2013-02-24 23:53:00,
2013-02-24 19:08:00,30.9,23.0,29.98,NNW,333,5.0,14.0,72,0.00,,,0.00,weatherlink.com 1.10,2013-02-25 00:08:00,
2013-02-24 19:23:00,30.7,23.0,29.99,NW,320,3.0,11.0,72,0.00,,,0.00,weatherlink.com 1.10,2013-02-25 00:23:00,
2013-02-24 19:38:00,30.8,23.0,29.99,NNW,329,3.0,15.0,72,0.00,,,0.00,weatherlink.com 1.10,2013-02-25 00:38:00,
2013-02-24 19:53:00,30.5,22.0,30.00,WNW,294,3.0,13.0,72,0.00,,,0.00,weatherlink.com 1.10,2013-02-25 00:53:00,
2013-02-24 20:08:00,30.3,22.0,30.00,NW,315,4.0,12.0,72,0.00,,,0.00,weatherlink.com 1.10,2013-02-25 01:08:00,
2013-02-24 20:23:00,30.2,22.0,30.00,NNW,331,1.0,10.0,71,0.00,,,0.00,weatherlink.com 1.10,2013-02-25 01:23:00,
2013-02-24 20:38:00,30.1,22.0,30.00,NW,317,2.0,11.0,71,0.00,,,0.00,weatherlink.com 1.10,2013-02-25 01:38:00,
2013-02-24 20:53:00,29.9,22.0,30.00,West,279,4.0,12.0,71,0.00,,,0.00,weatherlink.com 1.10,2013-02-25 01:53:00,
2013-02-24 21:08:00,29.6,21.0,30.01,WNW,301,5.0,14.0,69,0.00,,,0.00,weatherlink.com 1.10,2013-02-25 02:08:00,
2013-02-24 21:23:00,29.5,20.0,30.01,West,271,12.0,15.0,68,0.00,,,0.00,weatherlink.com 1.10,2013-02-25 02:23:00,
2013-02-24 21:38:00,29.3,20.0,30.01,West,275,8.0,15.0,68,0.00,,,0.00,weatherlink.com 1.10,2013-02-25 02:38:00,
2013-02-24 21:53:00,28.9,20.0,30.01,SW,229,2.0,12.0,69,0.00,,,0.00,weatherlink.com 1.10,2013-02-25 02:53:00,
2013-02-24 22:08:00,28.5,20.0,30.02,SSW,198,1.0,14.0,70,0.00,,,0.00,weatherlink.com 1.10,2013-02-25 03:08:00,
2013-02-24 22:23:00,28.3,20.0,30.01,NW,310,6.0,13.0,70,0.00,,,0.00,weatherlink.com 1.10,2013-02-25 03:23:00,
2013-02-24 22:38:00,27.9,20.0,30.01,WNW,287,4.0,11.0,72,0.00,,,0.00,weatherlink.com 1.10,2013-02-25 03:38:00,
2013-02-24 22:54:00,27.7,19.0,30.01,NW,315,3.0,9.0,69,0.00,,,0.00,weatherlink.com 1.10,2013-02-25 03:54:00,
2013-02-24 23:09:00,28.1,18.0,30.01,NW,305,6.0,10.0,67,0.00,,,0.00,weatherlink.com 1.10,2013-02-25 04:09:00,
2013-02-24 23:24:00,28.0,18.0,30.01,ESE,117,2.0,9.0,67,0.00,,,0.00,weatherlink.com 1.10,2013-02-25 04:24:00,
2013-02-24 23:39:00,28.1,18.0,30.02,WNW,291,5.0,10.0,66,0.00,,,0.00,weatherlink.com 1.10,2013-02-25 04:39:00,
2013-02-24 23:54:00,28.1,18.0,30.00,ENE,63,2.0,8.0,66,0.00,,,0.00,weatherlink.com 1.10,2013-02-25 04:54:00,